sensor_id;sensor_type;location;lat;lon;timestamp;pressure;altitude;pressure_sealevel;temperature;humidity
34243;BME280;20504;43.214;27.920;2023-05-23T00:02:04;100098.47;;;20.92;100.00
34243;BME280;20504;43.214;27.920;2023-05-23T00:04:34;100132.97;;;20.97;100.00
34243;BME280;20504;43.214;27.920;2023-05-23T00:07:01;100219.00;;;21.23;100.00
34243;BME280;20504;43.214;27.920;2023-05-23T00:09:27;100180.28;;;21.07;100.00
34243;BME280;20504;43.214;27.920;2023-05-23T00:11:52;100224.75;;;21.11;100.00
34243;BME280;20504;43.214;27.920;2023-05-23T00:14:18;100242.44;;;21.14;100.00
34243;BME280;20504;43.214;27.920;2023-05-23T00:16:44;100280.34;;;21.21;100.00
34243;BME280;20504;43.214;27.920;2023-05-23T00:19:11;100314.91;;;21.25;100.00
34243;BME280;20504;43.214;27.920;2023-05-23T00:21:39;100266.03;;;21.12;100.00
34243;BME280;20504;43.214;27.920;2023-05-23T00:24:05;100333.78;;;21.25;100.00
34243;BME280;20504;43.214;27.920;2023-05-23T00:26:31;100317.41;;;21.18;100.00
34243;BME280;20504;43.214;27.920;2023-05-23T00:28:57;100334.28;;;21.21;100.00
34243;BME280;20504;43.214;27.920;2023-05-23T00:31:23;100280.22;;;21.06;100.00
34243;BME280;20504;43.214;27.920;2023-05-23T00:33:48;100245.53;;;21.03;100.00
34243;BME280;20504;43.214;27.920;2023-05-23T00:36:14;100293.00;;;21.12;100.00
34243;BME280;20504;43.214;27.920;2023-05-23T00:38:39;100199.03;;;20.93;100.00
34243;BME280;20504;43.214;27.920;2023-05-23T00:41:05;100232.72;;;21.05;100.00
34243;BME280;20504;43.214;27.920;2023-05-23T00:43:31;100218.38;;;21.04;100.00
34243;BME280;20504;43.214;27.920;2023-05-23T00:45:57;100184.38;;;20.95;100.00
34243;BME280;20504;43.214;27.920;2023-05-23T00:48:25;100154.72;;;20.95;100.00
34243;BME280;20504;43.214;27.920;2023-05-23T00:50:52;100153.03;;;20.94;100.00
34243;BME280;20504;43.214;27.920;2023-05-23T00:53:18;100161.78;;;20.96;100.00
34243;BME280;20504;43.214;27.920;2023-05-23T00:55:44;100132.38;;;20.86;100.00
34243;BME280;20504;43.214;27.920;2023-05-23T00:58:10;100168.53;;;20.92;100.00
34243;BME280;20504;43.214;27.920;2023-05-23T01:00:37;100173.41;;;20.97;100.00
34243;BME280;20504;43.214;27.920;2023-05-23T01:03:03;100128.66;;;20.88;100.00
34243;BME280;20504;43.214;27.920;2023-05-23T01:05:29;100106.78;;;20.82;100.00
34243;BME280;20504;43.214;27.920;2023-05-23T01:07:55;100234.53;;;21.12;100.00
34243;BME280;20504;43.214;27.920;2023-05-23T01:10:26;100165.81;;;21.00;100.00
34243;BME280;20504;43.214;27.920;2023-05-23T01:16:12;100228.66;;;21.09;100.00
34243;BME280;20504;43.214;27.920;2023-05-23T01:18:48;100139.75;;;20.93;100.00
34243;BME280;20504;43.214;27.920;2023-05-23T01:21:20;100142.44;;;20.93;100.00
34243;BME280;20504;43.214;27.920;2023-05-23T01:23:53;100151.19;;;20.95;100.00
34243;BME280;20504;43.214;27.920;2023-05-23T01:29:10;100082.53;;;20.82;100.00
34243;BME280;20504;43.214;27.920;2023-05-23T01:31:44;100122.38;;;20.95;100.00
34243;BME280;20504;43.214;27.920;2023-05-23T01:34:13;100080.66;;;20.83;100.00
34243;BME280;20504;43.214;27.920;2023-05-23T01:36:42;100050.34;;;20.81;100.00
34243;BME280;20504;43.214;27.920;2023-05-23T01:39:08;100052.00;;;20.82;100.00
34243;BME280;20504;43.214;27.920;2023-05-23T01:41:33;100041.22;;;20.82;100.00
34243;BME280;20504;43.214;27.920;2023-05-23T01:43:59;100080.78;;;20.90;100.00
34243;BME280;20504;43.214;27.920;2023-05-23T01:46:26;100057.91;;;20.85;100.00
34243;BME280;20504;43.214;27.920;2023-05-23T01:48:53;100031.31;;;20.82;100.00
34243;BME280;20504;43.214;27.920;2023-05-23T01:51:21;100043.44;;;20.86;100.00
34243;BME280;20504;43.214;27.920;2023-05-23T01:53:48;100003.19;;;20.85;100.00
34243;BME280;20504;43.214;27.920;2023-05-23T01:56:14;99979.78;;;20.77;100.00
34243;BME280;20504;43.214;27.920;2023-05-23T01:58:40;99981.63;;;20.85;100.00
34243;BME280;20504;43.214;27.920;2023-05-23T02:01:05;99927.09;;;20.75;100.00
34243;BME280;20504;43.214;27.920;2023-05-23T02:03:31;99893.16;;;20.66;100.00
34243;BME280;20504;43.214;27.920;2023-05-23T02:05:56;99868.78;;;20.59;100.00
34243;BME280;20504;43.214;27.920;2023-05-23T02:08:22;99921.22;;;20.71;100.00
34243;BME280;20504;43.214;27.920;2023-05-23T02:10:47;99937.41;;;20.71;100.00
34243;BME280;20504;43.214;27.920;2023-05-23T02:13:13;99878.34;;;20.62;100.00
34243;BME280;20504;43.214;27.920;2023-05-23T02:15:38;99898.38;;;20.67;100.00
34243;BME280;20504;43.214;27.920;2023-05-23T02:18:04;99827.59;;;20.50;100.00
34243;BME280;20504;43.214;27.920;2023-05-23T02:20:30;99871.78;;;20.64;100.00
34243;BME280;20504;43.214;27.920;2023-05-23T02:22:56;99843.03;;;20.56;100.00
34243;BME280;20504;43.214;27.920;2023-05-23T02:25:21;99875.31;;;20.65;100.00
34243;BME280;20504;43.214;27.920;2023-05-23T02:27:47;99872.44;;;20.66;100.00
34243;BME280;20504;43.214;27.920;2023-05-23T02:30:12;99839.97;;;20.60;100.00
34243;BME280;20504;43.214;27.920;2023-05-23T02:32:38;99845.19;;;20.61;100.00
34243;BME280;20504;43.214;27.920;2023-05-23T02:35:04;99821.84;;;20.53;100.00
34243;BME280;20504;43.214;27.920;2023-05-23T02:37:30;99752.94;;;20.36;100.00
34243;BME280;20504;43.214;27.920;2023-05-23T02:39:55;99765.19;;;20.47;100.00
34243;BME280;20504;43.214;27.920;2023-05-23T02:42:21;99778.84;;;20.45;100.00
34243;BME280;20504;43.214;27.920;2023-05-23T02:44:47;99771.16;;;20.57;100.00
34243;BME280;20504;43.214;27.920;2023-05-23T02:47:12;99726.66;;;20.46;100.00
34243;BME280;20504;43.214;27.920;2023-05-23T02:49:38;99671.25;;;20.44;100.00
34243;BME280;20504;43.214;27.920;2023-05-23T02:52:03;99725.16;;;20.59;100.00
34243;BME280;20504;43.214;27.920;2023-05-23T02:54:29;99624.72;;;20.35;100.00
34243;BME280;20504;43.214;27.920;2023-05-23T02:56:55;99703.25;;;20.62;100.00
34243;BME280;20504;43.214;27.920;2023-05-23T02:59:21;99733.00;;;20.68;100.00
34243;BME280;20504;43.214;27.920;2023-05-23T03:01:47;99779.28;;;20.72;100.00
34243;BME280;20504;43.214;27.920;2023-05-23T03:04:13;99770.81;;;20.75;100.00
34243;BME280;20504;43.214;27.920;2023-05-23T03:06:38;99791.13;;;20.85;100.00
34243;BME280;20504;43.214;27.920;2023-05-23T03:09:06;99737.19;;;20.71;100.00
34243;BME280;20504;43.214;27.920;2023-05-23T03:11:32;99725.44;;;20.64;100.00
34243;BME280;20504;43.214;27.920;2023-05-23T03:13:57;99811.00;;;20.84;100.00
34243;BME280;20504;43.214;27.920;2023-05-23T03:16:23;99823.13;;;20.80;100.00
34243;BME280;20504;43.214;27.920;2023-05-23T03:18:48;99887.69;;;20.97;100.00
34243;BME280;20504;43.214;27.920;2023-05-23T03:21:14;99956.34;;;21.09;100.00
34243;BME280;20504;43.214;27.920;2023-05-23T03:23:39;99977.53;;;21.12;100.00
34243;BME280;20504;43.214;27.920;2023-05-23T03:26:05;99971.19;;;21.05;100.00
34243;BME280;20504;43.214;27.920;2023-05-23T03:28:31;100016.59;;;21.16;100.00
34243;BME280;20504;43.214;27.920;2023-05-23T03:30:57;100101.50;;;21.28;100.00
34243;BME280;20504;43.214;27.920;2023-05-23T03:33:22;100167.34;;;21.42;100.00
34243;BME280;20504;43.214;27.920;2023-05-23T03:35:49;100132.00;;;21.29;100.00
34243;BME280;20504;43.214;27.920;2023-05-23T03:38:14;100099.16;;;21.17;100.00
34243;BME280;20504;43.214;27.920;2023-05-23T03:40:42;100117.72;;;21.20;100.00
34243;BME280;20504;43.214;27.920;2023-05-23T03:43:08;100133.91;;;21.20;100.00
34243;BME280;20504;43.214;27.920;2023-05-23T03:45:33;100179.34;;;21.31;100.00
34243;BME280;20504;43.214;27.920;2023-05-23T03:47:59;100239.81;;;21.45;100.00
34243;BME280;20504;43.214;27.920;2023-05-23T03:50:25;100218.25;;;21.37;100.00
34243;BME280;20504;43.214;27.920;2023-05-23T03:52:51;100336.06;;;21.61;100.00
34243;BME280;20504;43.214;27.920;2023-05-23T03:55:17;100356.63;;;21.62;100.00
34243;BME280;20504;43.214;27.920;2023-05-23T03:57:50;100400.94;;;21.67;100.00
34243;BME280;20504;43.214;27.920;2023-05-23T04:00:16;100399.63;;;21.63;100.00
34243;BME280;20504;43.214;27.920;2023-05-23T04:02:43;100415.81;;;21.63;100.00
34243;BME280;20504;43.214;27.920;2023-05-23T04:05:08;100350.25;;;21.46;100.00
34243;BME280;20504;43.214;27.920;2023-05-23T04:07:34;100375.16;;;21.57;100.00
34243;BME280;20504;43.214;27.920;2023-05-23T04:10:01;100335.94;;;21.46;100.00
34243;BME280;20504;43.214;27.920;2023-05-23T04:12:27;100274.06;;;21.44;100.00
34243;BME280;20504;43.214;27.920;2023-05-23T04:14:54;100313.81;;;21.51;100.00
34243;BME280;20504;43.214;27.920;2023-05-23T04:17:20;100360.81;;;21.64;100.00
34243;BME280;20504;43.214;27.920;2023-05-23T04:19:46;100325.09;;;21.54;100.00
34243;BME280;20504;43.214;27.920;2023-05-23T04:22:12;100332.34;;;21.54;100.00
34243;BME280;20504;43.214;27.920;2023-05-23T04:24:37;100302.06;;;21.43;100.00
34243;BME280;20504;43.214;27.920;2023-05-23T04:27:03;100316.19;;;21.45;100.00
34243;BME280;20504;43.214;27.920;2023-05-23T04:29:29;100428.44;;;21.71;100.00
34243;BME280;20504;43.214;27.920;2023-05-23T04:31:57;100375.88;;;21.51;100.00
34243;BME280;20504;43.214;27.920;2023-05-23T04:34:23;100447.66;;;21.68;100.00
34243;BME280;20504;43.214;27.920;2023-05-23T04:36:48;100477.69;;;21.73;100.00
34243;BME280;20504;43.214;27.920;2023-05-23T04:39:14;100509.41;;;21.79;100.00
34243;BME280;20504;43.214;27.920;2023-05-23T04:41:41;100445.84;;;21.60;100.00
34243;BME280;20504;43.214;27.920;2023-05-23T04:44:08;100408.91;;;21.61;100.00
34243;BME280;20504;43.214;27.920;2023-05-23T04:46:34;100410.59;;;21.62;100.00
34243;BME280;20504;43.214;27.920;2023-05-23T04:49:01;100405.53;;;21.59;100.00
34243;BME280;20504;43.214;27.920;2023-05-23T04:51:28;100379.88;;;21.63;100.00
34243;BME280;20504;43.214;27.920;2023-05-23T04:53:53;100367.41;;;21.62;100.00
34243;BME280;20504;43.214;27.920;2023-05-23T04:56:19;100410.25;;;21.65;100.00
34243;BME280;20504;43.214;27.920;2023-05-23T04:58:45;100465.19;;;21.80;100.00
34243;BME280;20504;43.214;27.920;2023-05-23T05:01:11;100537.22;;;21.96;100.00
34243;BME280;20504;43.214;27.920;2023-05-23T05:03:38;100561.34;;;21.97;100.00
34243;BME280;20504;43.214;27.920;2023-05-23T05:06:04;100604.38;;;21.99;100.00
34243;BME280;20504;43.214;27.920;2023-05-23T05:08:30;100641.50;;;22.05;100.00
34243;BME280;20504;43.214;27.920;2023-05-23T05:10:56;100768.97;;;22.25;100.00
34243;BME280;20504;43.214;27.920;2023-05-23T05:13:22;100802.72;;;22.29;100.00
34243;BME280;20504;43.214;27.920;2023-05-23T05:15:47;100954.13;;;22.53;100.00
34243;BME280;20504;43.214;27.920;2023-05-23T05:18:13;100974.69;;;22.38;100.00
34243;BME280;20504;43.214;27.920;2023-05-23T05:20:38;101058.00;;;22.51;100.00
34243;BME280;20504;43.214;27.920;2023-05-23T05:23:04;101097.69;;;22.50;100.00
34243;BME280;20504;43.214;27.920;2023-05-23T05:25:29;101224.34;;;22.71;100.00
34243;BME280;20504;43.214;27.920;2023-05-23T05:28:00;101300.25;;;22.78;100.00
34243;BME280;20504;43.214;27.920;2023-05-23T05:30:30;101316.97;;;22.73;100.00
34243;BME280;20504;43.214;27.920;2023-05-23T05:32:57;101295.94;;;22.67;100.00
34243;BME280;20504;43.214;27.920;2023-05-23T05:35:23;101301.84;;;22.62;100.00
34243;BME280;20504;43.214;27.920;2023-05-23T05:37:48;101304.38;;;22.64;100.00
34243;BME280;20504;43.214;27.920;2023-05-23T05:40:17;101335.38;;;22.70;100.00
34243;BME280;20504;43.214;27.920;2023-05-23T05:42:43;101438.50;;;22.92;100.00
34243;BME280;20504;43.214;27.920;2023-05-23T05:45:11;101505.19;;;23.02;100.00
34243;BME280;20504;43.214;27.920;2023-05-23T05:47:37;101623.38;;;23.19;100.00
34243;BME280;20504;43.214;27.920;2023-05-23T05:50:04;101712.63;;;23.29;100.00
34243;BME280;20504;43.214;27.920;2023-05-23T05:52:32;101759.72;;;23.36;100.00
34243;BME280;20504;43.214;27.920;2023-05-23T05:54:58;101660.66;;;23.07;100.00
34243;BME280;20504;43.214;27.920;2023-05-23T05:57:24;101694.91;;;23.16;100.00
34243;BME280;20504;43.214;27.920;2023-05-23T05:59:49;101829.91;;;23.47;100.00
34243;BME280;20504;43.214;27.920;2023-05-23T06:02:15;101888.56;;;23.56;100.00
34243;BME280;20504;43.214;27.920;2023-05-23T06:04:40;101966.81;;;23.69;100.00
34243;BME280;20504;43.214;27.920;2023-05-23T06:07:06;102057.13;;;23.77;100.00
34243;BME280;20504;43.214;27.920;2023-05-23T06:09:31;102045.19;;;23.70;100.00
34243;BME280;20504;43.214;27.920;2023-05-23T06:11:58;102143.53;;;23.90;100.00
34243;BME280;20504;43.214;27.920;2023-05-23T06:14:24;102114.63;;;23.81;100.00
34243;BME280;20504;43.214;27.920;2023-05-23T06:16:50;102055.75;;;23.73;100.00
34243;BME280;20504;43.214;27.920;2023-05-23T06:19:16;102043.91;;;23.74;100.00
34243;BME280;20504;43.214;27.920;2023-05-23T06:21:41;102014.56;;;23.70;100.00
34243;BME280;20504;43.214;27.920;2023-05-23T06:24:07;102064.13;;;23.80;100.00
34243;BME280;20504;43.214;27.920;2023-05-23T06:26:32;102155.63;;;23.96;100.00
34243;BME280;20504;43.214;27.920;2023-05-23T06:28:58;102264.69;;;24.17;100.00
34243;BME280;20504;43.214;27.920;2023-05-23T06:31:23;102230.09;;;24.01;100.00
34243;BME280;20504;43.214;27.920;2023-05-23T06:33:48;102244.19;;;24.05;100.00
34243;BME280;20504;43.214;27.920;2023-05-23T06:36:15;102342.75;;;24.23;100.00
34243;BME280;20504;43.214;27.920;2023-05-23T06:38:40;102439.97;;;24.37;100.00
34243;BME280;20504;43.214;27.920;2023-05-23T06:41:06;102510.19;;;24.40;100.00
34243;BME280;20504;43.214;27.920;2023-05-23T06:43:31;102691.25;;;24.67;100.00
34243;BME280;20504;43.214;27.920;2023-05-23T06:45:57;102648.38;;;24.52;100.00
34243;BME280;20504;43.214;27.920;2023-05-23T06:48:22;102583.56;;;24.39;100.00
34243;BME280;20504;43.214;27.920;2023-05-23T06:50:48;102640.97;;;24.54;100.00
34243;BME280;20504;43.214;27.920;2023-05-23T06:53:13;102589.28;;;24.45;100.00
34243;BME280;20504;43.214;27.920;2023-05-23T06:55:40;102445.34;;;24.18;100.00
34243;BME280;20504;43.214;27.920;2023-05-23T06:58:06;102409.13;;;24.19;100.00
34243;BME280;20504;43.214;27.920;2023-05-23T07:00:31;102270.72;;;23.92;100.00
34243;BME280;20504;43.214;27.920;2023-05-23T07:02:57;102294.28;;;24.01;100.00
34243;BME280;20504;43.214;27.920;2023-05-23T07:05:27;102356.16;;;24.25;100.00
34243;BME280;20504;43.214;27.920;2023-05-23T07:07:53;102418.28;;;24.37;100.00
34243;BME280;20504;43.214;27.920;2023-05-23T07:10:18;102471.50;;;24.48;100.00
34243;BME280;20504;43.214;27.920;2023-05-23T07:12:45;102538.47;;;24.57;100.00
34243;BME280;20504;43.214;27.920;2023-05-23T07:15:11;102351.59;;;24.15;100.00
34243;BME280;20504;43.214;27.920;2023-05-23T07:17:37;102543.75;;;24.59;100.00
34243;BME280;20504;43.214;27.920;2023-05-23T07:20:03;102457.38;;;24.44;100.00
34243;BME280;20504;43.214;27.920;2023-05-23T07:22:29;102457.94;;;24.58;100.00
34243;BME280;20504;43.214;27.920;2023-05-23T07:24:55;102357.72;;;24.46;100.00
34243;BME280;20504;43.214;27.920;2023-05-23T07:27:21;102152.59;;;24.18;100.00
34243;BME280;20504;43.214;27.920;2023-05-23T07:29:47;102003.84;;;24.05;100.00
34243;BME280;20504;43.214;27.920;2023-05-23T07:32:12;101958.00;;;24.12;100.00
34243;BME280;20504;43.214;27.920;2023-05-23T07:34:38;102042.94;;;24.30;100.00
34243;BME280;20504;43.214;27.920;2023-05-23T07:37:03;102058.63;;;24.36;100.00
34243;BME280;20504;43.214;27.920;2023-05-23T07:39:29;101920.38;;;24.09;100.00
34243;BME280;20504;43.214;27.920;2023-05-23T07:41:54;101818.78;;;23.95;100.00
34243;BME280;20504;43.214;27.920;2023-05-23T07:44:20;101735.88;;;23.84;100.00
34243;BME280;20504;43.214;27.920;2023-05-23T07:46:45;101757.13;;;23.97;100.00
34243;BME280;20504;43.214;27.920;2023-05-23T07:49:11;101937.75;;;24.34;100.00
34243;BME280;20504;43.214;27.920;2023-05-23T07:51:36;101947.91;;;24.32;100.00
34243;BME280;20504;43.214;27.920;2023-05-23T07:54:02;102024.16;;;24.46;100.00
34243;BME280;20504;43.214;27.920;2023-05-23T07:56:28;102106.88;;;24.60;100.00
34243;BME280;20504;43.214;27.920;2023-05-23T07:58:53;102207.59;;;24.75;100.00
34243;BME280;20504;43.214;27.920;2023-05-23T08:01:19;102340.63;;;24.93;100.00
34243;BME280;20504;43.214;27.920;2023-05-23T08:03:46;102427.88;;;24.98;100.00
34243;BME280;20504;43.214;27.920;2023-05-23T08:06:11;102405.78;;;24.93;100.00
34243;BME280;20504;43.214;27.920;2023-05-23T08:08:37;102557.34;;;25.17;100.00
34243;BME280;20504;43.214;27.920;2023-05-23T08:11:03;102633.63;;;25.23;100.00
34243;BME280;20504;43.214;27.920;2023-05-23T08:13:29;102557.91;;;25.01;100.00
34243;BME280;20504;43.214;27.920;2023-05-23T08:15:54;102567.31;;;24.97;100.00
34243;BME280;20504;43.214;27.920;2023-05-23T08:18:20;102709.97;;;25.30;100.00
34243;BME280;20504;43.214;27.920;2023-05-23T08:20:45;102943.06;;;25.65;100.00
34243;BME280;20504;43.214;27.920;2023-05-23T08:23:11;103363.84;;;26.24;100.00
34243;BME280;20504;43.214;27.920;2023-05-23T08:25:37;103589.00;;;26.43;100.00
34243;BME280;20504;43.214;27.920;2023-05-23T08:28:02;103669.78;;;26.42;100.00
34243;BME280;20504;43.214;27.920;2023-05-23T08:30:28;103550.69;;;26.23;100.00
34243;BME280;20504;43.214;27.920;2023-05-23T08:32:54;103602.47;;;26.44;100.00
34243;BME280;20504;43.214;27.920;2023-05-23T08:35:21;103522.69;;;26.33;100.00
34243;BME280;20504;43.214;27.920;2023-05-23T08:37:47;103539.28;;;26.30;100.00
34243;BME280;20504;43.214;27.920;2023-05-23T08:40:23;103395.25;;;25.96;100.00
34243;BME280;20504;43.214;27.920;2023-05-23T08:42:50;103734.81;;;26.56;100.00
34243;BME280;20504;43.214;27.920;2023-05-23T08:45:16;103918.81;;;26.81;100.00
34243;BME280;20504;43.214;27.920;2023-05-23T08:47:43;104205.31;;;27.22;100.00
34243;BME280;20504;43.214;27.920;2023-05-23T08:50:13;104125.81;;;26.93;100.00
34243;BME280;20504;43.214;27.920;2023-05-23T08:52:56;104099.56;;;26.80;100.00
34243;BME280;20504;43.214;27.920;2023-05-23T08:55:27;104074.50;;;26.64;100.00
34243;BME280;20504;43.214;27.920;2023-05-23T08:57:54;104198.50;;;26.92;100.00
34243;BME280;20504;43.214;27.920;2023-05-23T09:00:20;104327.22;;;27.20;100.00
34243;BME280;20504;43.214;27.920;2023-05-23T09:02:46;104424.31;;;27.33;100.00
34243;BME280;20504;43.214;27.920;2023-05-23T09:05:12;104341.19;;;27.15;100.00
34243;BME280;20504;43.214;27.920;2023-05-23T09:07:38;103678.56;;;26.23;100.00
34243;BME280;20504;43.214;27.920;2023-05-23T09:10:06;103582.84;;;26.41;100.00
34243;BME280;20504;43.214;27.920;2023-05-23T09:12:33;103380.16;;;26.24;100.00
34243;BME280;20504;43.214;27.920;2023-05-23T09:15:01;103243.53;;;26.20;100.00
34243;BME280;20504;43.214;27.920;2023-05-23T09:17:27;102631.94;;;25.32;100.00
34243;BME280;20504;43.214;27.920;2023-05-23T09:19:52;102708.50;;;25.84;100.00
34243;BME280;20504;43.214;27.920;2023-05-23T09:22:25;102599.81;;;25.74;100.00
34243;BME280;20504;43.214;27.920;2023-05-23T09:24:52;102495.59;;;25.56;100.00
34243;BME280;20504;43.214;27.920;2023-05-23T09:27:17;102391.19;;;25.58;100.00
34243;BME280;20504;43.214;27.920;2023-05-23T09:29:43;102169.81;;;25.27;100.00
34243;BME280;20504;43.214;27.920;2023-05-23T09:32:14;101948.03;;;25.01;100.00
34243;BME280;20504;43.214;27.920;2023-05-23T09:35:02;101968.72;;;25.28;100.00
34243;BME280;20504;43.214;27.920;2023-05-23T09:37:46;101927.13;;;25.20;100.00
34243;BME280;20504;43.214;27.920;2023-05-23T09:40:13;101949.69;;;25.20;100.00
34243;BME280;20504;43.214;27.920;2023-05-23T09:42:45;101942.53;;;25.11;100.00
34243;BME280;20504;43.214;27.920;2023-05-23T09:45:12;101715.53;;;24.76;100.00
34243;BME280;20504;43.214;27.920;2023-05-23T09:47:38;101660.94;;;24.79;100.00
34243;BME280;20504;43.214;27.920;2023-05-23T09:50:04;101568.66;;;24.71;100.00
34243;BME280;20504;43.214;27.920;2023-05-23T09:52:35;101443.72;;;24.56;100.00
34243;BME280;20504;43.214;27.920;2023-05-23T09:55:02;101491.00;;;24.70;100.00
34243;BME280;20504;43.214;27.920;2023-05-23T09:57:28;101362.53;;;24.55;100.00
34243;BME280;20504;43.214;27.920;2023-05-23T09:59:57;101421.16;;;24.72;100.00
34243;BME280;20504;43.214;27.920;2023-05-23T10:05:33;101454.41;;;24.74;100.00
34243;BME280;20504;43.214;27.920;2023-05-23T10:08:01;101326.91;;;24.50;100.00
34243;BME280;20504;43.214;27.920;2023-05-23T10:10:31;101220.69;;;24.22;100.00
34243;BME280;20504;43.214;27.920;2023-05-23T10:13:01;101398.63;;;24.63;100.00
34243;BME280;20504;43.214;27.920;2023-05-23T10:15:30;101349.81;;;24.47;100.00
34243;BME280;20504;43.214;27.920;2023-05-23T10:18:12;101496.13;;;24.81;100.00
34243;BME280;20504;43.214;27.920;2023-05-23T10:20:42;101163.28;;;24.10;100.00
34243;BME280;20504;43.214;27.920;2023-05-23T10:23:12;101003.00;;;23.82;100.00
34243;BME280;20504;43.214;27.920;2023-05-23T10:25:38;100760.25;;;23.50;100.00
34243;BME280;20504;43.214;27.920;2023-05-23T10:28:05;100507.41;;;23.21;100.00
34243;BME280;20504;43.214;27.920;2023-05-23T10:30:31;100259.13;;;22.79;100.00
34243;BME280;20504;43.214;27.920;2023-05-23T10:32:58;99981.09;;;22.47;100.00
34243;BME280;20504;43.214;27.920;2023-05-23T10:38:03;99766.78;;;22.40;100.00
34243;BME280;20504;43.214;27.920;2023-05-23T10:46:13;99375.34;;;21.69;100.00
34243;BME280;20504;43.214;27.920;2023-05-23T10:48:43;99174.31;;;21.32;100.00
34243;BME280;20504;43.214;27.920;2023-05-23T10:51:10;99026.84;;;21.32;100.00
34243;BME280;20504;43.214;27.920;2023-05-23T10:53:45;98851.41;;;21.27;100.00
34243;BME280;20504;43.214;27.920;2023-05-23T10:56:22;98793.75;;;21.28;100.00
34243;BME280;20504;43.214;27.920;2023-05-23T10:58:54;98636.81;;;21.00;100.00
34243;BME280;20504;43.214;27.920;2023-05-23T11:01:21;98560.56;;;20.93;100.00
34243;BME280;20504;43.214;27.920;2023-05-23T11:03:48;98476.53;;;20.71;100.00
34243;BME280;20504;43.214;27.920;2023-05-23T11:06:36;98431.31;;;20.79;100.00
34243;BME280;20504;43.214;27.920;2023-05-23T11:09:05;98472.97;;;20.83;100.00
34243;BME280;20504;43.214;27.920;2023-05-23T11:14:14;98530.75;;;20.88;100.00
34243;BME280;20504;43.214;27.920;2023-05-23T11:16:41;98575.84;;;21.12;100.00
34243;BME280;20504;43.214;27.920;2023-05-23T11:19:20;98560.00;;;21.35;100.00
34243;BME280;20504;43.214;27.920;2023-05-23T11:21:58;98644.31;;;21.62;100.00
34243;BME280;20504;43.214;27.920;2023-05-23T11:27:14;99001.84;;;22.82;100.00
34243;BME280;20504;43.214;27.920;2023-05-23T11:29:40;99042.56;;;23.32;100.00
34243;BME280;20504;43.214;27.920;2023-05-23T11:32:10;99033.19;;;23.35;100.00
34243;BME280;20504;43.214;27.920;2023-05-23T11:34:37;99026.41;;;23.25;100.00
34243;BME280;20504;43.214;27.920;2023-05-23T11:37:03;99180.25;;;23.47;100.00
34243;BME280;20504;43.214;27.920;2023-05-23T11:39:29;99184.84;;;23.40;100.00
34243;BME280;20504;43.214;27.920;2023-05-23T11:42:01;99728.56;;;24.42;100.00
34243;BME280;20504;43.214;27.920;2023-05-23T11:44:28;100372.28;;;25.64;100.00
34243;BME280;20504;43.214;27.920;2023-05-23T11:47:05;100866.41;;;26.17;100.00
34243;BME280;20504;43.214;27.920;2023-05-23T11:49:33;101184.94;;;26.20;100.00
34243;BME280;20504;43.214;27.920;2023-05-23T11:52:00;101255.25;;;25.86;100.00
34243;BME280;20504;43.214;27.920;2023-05-23T11:54:27;101250.75;;;25.70;100.00
34243;BME280;20504;43.214;27.920;2023-05-23T11:56:54;101537.34;;;26.21;100.00
34243;BME280;20504;43.214;27.920;2023-05-23T11:59:26;102130.75;;;26.83;100.00
34243;BME280;20504;43.214;27.920;2023-05-23T12:01:53;101979.00;;;26.11;100.00
34243;BME280;20504;43.214;27.920;2023-05-23T12:04:18;102773.59;;;27.52;100.00
34243;BME280;20504;43.214;27.920;2023-05-23T12:06:48;104201.09;;;29.37;100.00
34243;BME280;20504;43.214;27.920;2023-05-23T12:09:14;104981.97;;;29.77;100.00
34243;BME280;20504;43.214;27.920;2023-05-23T12:11:41;104061.47;;;27.92;100.00
34243;BME280;20504;43.214;27.920;2023-05-23T12:14:08;102901.38;;;26.14;100.00
34243;BME280;20504;43.214;27.920;2023-05-23T12:16:34;102266.44;;;25.47;100.00
34243;BME280;20504;43.214;27.920;2023-05-23T12:19:01;101704.91;;;24.99;100.00
34243;BME280;20504;43.214;27.920;2023-05-23T12:21:42;101347.94;;;24.80;100.00
34243;BME280;20504;43.214;27.920;2023-05-23T12:24:18;101130.59;;;24.75;100.00
34243;BME280;20504;43.214;27.920;2023-05-23T12:26:57;100968.66;;;24.53;100.00
34243;BME280;20504;43.214;27.920;2023-05-23T12:29:32;100761.94;;;24.36;100.00
34243;BME280;20504;43.214;27.920;2023-05-23T12:31:59;100737.66;;;24.42;100.00
34243;BME280;20504;43.214;27.920;2023-05-23T12:34:24;101076.97;;;25.16;100.00
34243;BME280;20504;43.214;27.920;2023-05-23T12:36:56;101762.34;;;26.27;100.00
34243;BME280;20504;43.214;27.920;2023-05-23T12:39:28;102276.34;;;26.79;100.00
34243;BME280;20504;43.214;27.920;2023-05-23T12:41:55;103422.09;;;28.22;100.00
34243;BME280;20504;43.214;27.920;2023-05-23T12:44:31;105091.16;;;30.28;100.00
34243;BME280;20504;43.214;27.920;2023-05-23T12:46:56;106002.53;;;31.24;100.00
34243;BME280;20504;43.214;27.920;2023-05-23T12:49:22;106636.53;;;31.83;100.00
34243;BME280;20504;43.214;27.920;2023-05-23T12:51:47;106745.97;;;31.75;100.00
34243;BME280;20504;43.214;27.920;2023-05-23T12:54:13;106861.50;;;31.87;100.00
34243;BME280;20504;43.214;27.920;2023-05-23T12:56:38;107321.88;;;32.62;100.00